sensor_id;sensor_type;location;lat;lon;timestamp;pressure;altitude;pressure_sealevel;temperature;humidity
59329;BME280;45100;46.926;7.452;2023-04-29T00:00:03;95150.45;;;13.98;99.52
59329;BME280;45100;46.926;7.452;2023-04-29T00:02:33;95145.77;;;13.94;99.86
59329;BME280;45100;46.926;7.452;2023-04-29T00:05:05;95146.81;;;13.92;100.00
59329;BME280;45100;46.926;7.452;2023-04-29T00:07:33;95147.66;;;13.90;100.00
59329;BME280;45100;46.926;7.452;2023-04-29T00:10:05;95132.37;;;13.84;99.71
59329;BME280;45100;46.926;7.452;2023-04-29T00:12:35;95125.53;;;13.74;100.00
59329;BME280;45100;46.926;7.452;2023-04-29T00:15:07;95122.64;;;13.63;100.00
59329;BME280;45100;46.926;7.452;2023-04-29T00:17:36;95121.79;;;13.56;100.00
59329;BME280;45100;46.926;7.452;2023-04-29T00:20:07;95119.91;;;13.52;100.00
59329;BME280;45100;46.926;7.452;2023-04-29T00:22:37;95131.57;;;13.47;100.00
59329;BME280;45100;46.926;7.452;2023-04-29T00:25:07;95135.42;;;13.43;100.00
59329;BME280;45100;46.926;7.452;2023-04-29T00:27:39;95127.14;;;13.39;100.00
59329;BME280;45100;46.926;7.452;2023-04-29T00:30:08;95128.22;;;13.35;100.00
59329;BME280;45100;46.926;7.452;2023-04-29T00:32:38;95137.37;;;13.31;100.00
59329;BME280;45100;46.926;7.452;2023-04-29T00:35:09;95131.20;;;13.27;100.00
59329;BME280;45100;46.926;7.452;2023-04-29T00:37:39;95140.09;;;13.26;100.00
59329;BME280;45100;46.926;7.452;2023-04-29T00:40:11;95134.33;;;13.24;100.00
59329;BME280;45100;46.926;7.452;2023-04-29T00:42:41;95133.03;;;13.22;100.00
59329;BME280;45100;46.926;7.452;2023-04-29T00:45:13;95131.64;;;13.23;100.00
59329;BME280;45100;46.926;7.452;2023-04-29T00:47:41;95136.93;;;13.22;100.00
59329;BME280;45100;46.926;7.452;2023-04-29T00:50:13;95127.41;;;13.21;100.00
59329;BME280;45100;46.926;7.452;2023-04-29T00:52:43;95122.61;;;13.20;100.00
59329;BME280;45100;46.926;7.452;2023-04-29T00:55:13;95119.42;;;13.20;100.00
59329;BME280;45100;46.926;7.452;2023-04-29T00:57:44;95121.97;;;13.20;100.00
59329;BME280;45100;46.926;7.452;2023-04-29T01:00:17;95118.72;;;13.18;100.00
59329;BME280;45100;46.926;7.452;2023-04-29T01:02:45;95122.29;;;13.20;100.00
59329;BME280;45100;46.926;7.452;2023-04-29T01:05:15;95119.24;;;13.22;100.00
59329;BME280;45100;46.926;7.452;2023-04-29T01:08:08;95118.44;;;13.27;100.00
59329;BME280;45100;46.926;7.452;2023-04-29T01:10:34;95124.49;;;13.32;100.00
59329;BME280;45100;46.926;7.452;2023-04-29T01:15:22;95126.84;;;13.40;100.00
59329;BME280;45100;46.926;7.452;2023-04-29T01:17:59;95131.58;;;13.42;100.00
59329;BME280;45100;46.926;7.452;2023-04-29T01:20:19;95124.02;;;13.45;100.00
59329;BME280;45100;46.926;7.452;2023-04-29T01:22:49;95121.33;;;13.45;100.00
59329;BME280;45100;46.926;7.452;2023-04-29T01:25:20;95125.86;;;13.44;100.00
59329;BME280;45100;46.926;7.452;2023-04-29T01:27:58;95127.58;;;13.44;100.00
59329;BME280;45100;46.926;7.452;2023-04-29T01:32:56;95126.83;;;13.41;100.00
59329;BME280;45100;46.926;7.452;2023-04-29T01:38:00;95118.65;;;13.31;100.00
59329;BME280;45100;46.926;7.452;2023-04-29T01:40:26;95123.30;;;13.27;100.00
59329;BME280;45100;46.926;7.452;2023-04-29T01:43:04;95122.24;;;13.23;100.00
59329;BME280;45100;46.926;7.452;2023-04-29T01:45:26;95120.99;;;13.20;100.00
59329;BME280;45100;46.926;7.452;2023-04-29T01:47:59;95124.89;;;13.16;100.00
59329;BME280;45100;46.926;7.452;2023-04-29T01:50:25;95126.77;;;13.15;100.00
59329;BME280;45100;46.926;7.452;2023-04-29T01:52:56;95117.99;;;13.14;100.00
59329;BME280;45100;46.926;7.452;2023-04-29T01:55:27;95123.16;;;13.12;100.00
59329;BME280;45100;46.926;7.452;2023-04-29T01:57:57;95122.91;;;13.10;100.00
59329;BME280;45100;46.926;7.452;2023-04-29T02:00:28;95116.98;;;13.10;100.00
59329;BME280;45100;46.926;7.452;2023-04-29T02:02:59;95114.59;;;13.09;100.00
59329;BME280;45100;46.926;7.452;2023-04-29T02:05:33;95101.47;;;13.08;100.00
59329;BME280;45100;46.926;7.452;2023-04-29T02:07:59;95102.17;;;13.04;100.00
59329;BME280;45100;46.926;7.452;2023-04-29T02:10:30;95093.00;;;13.02;100.00
59329;BME280;45100;46.926;7.452;2023-04-29T02:13:01;95093.79;;;13.00;100.00
59329;BME280;45100;46.926;7.452;2023-04-29T02:15:30;95099.76;;;12.98;100.00
59329;BME280;45100;46.926;7.452;2023-04-29T02:18:01;95101.72;;;12.99;100.00
59329;BME280;45100;46.926;7.452;2023-04-29T02:20:32;95105.02;;;12.99;100.00
59329;BME280;45100;46.926;7.452;2023-04-29T02:23:02;95110.25;;;13.01;100.00
59329;BME280;45100;46.926;7.452;2023-04-29T02:25:33;95114.53;;;13.02;100.00
59329;BME280;45100;46.926;7.452;2023-04-29T02:30:37;95113.73;;;13.08;100.00
59329;BME280;45100;46.926;7.452;2023-04-29T02:33:07;95114.67;;;13.08;100.00
59329;BME280;45100;46.926;7.452;2023-04-29T02:35:37;95108.95;;;13.09;100.00
59329;BME280;45100;46.926;7.452;2023-04-29T02:38:08;95114.04;;;13.09;99.94
59329;BME280;45100;46.926;7.452;2023-04-29T02:40:42;95114.22;;;13.10;99.80
59329;BME280;45100;46.926;7.452;2023-04-29T02:43:10;95113.78;;;13.11;99.40
59329;BME280;45100;46.926;7.452;2023-04-29T02:45:40;95114.52;;;13.12;98.91
59329;BME280;45100;46.926;7.452;2023-04-29T02:48:10;95113.00;;;13.13;98.83
59329;BME280;45100;46.926;7.452;2023-04-29T02:50:41;95109.56;;;13.14;98.81
59329;BME280;45100;46.926;7.452;2023-04-29T02:53:12;95110.12;;;13.16;98.80
59329;BME280;45100;46.926;7.452;2023-04-29T02:55:44;95104.34;;;13.16;98.61
59329;BME280;45100;46.926;7.452;2023-04-29T02:58:12;95108.95;;;13.17;98.43
59329;BME280;45100;46.926;7.452;2023-04-29T03:00:43;95110.02;;;13.16;98.27
59329;BME280;45100;46.926;7.452;2023-04-29T03:03:14;95108.32;;;13.14;98.58
59329;BME280;45100;46.926;7.452;2023-04-29T03:05:45;95107.01;;;13.10;98.85
59329;BME280;45100;46.926;7.452;2023-04-29T03:08:16;95102.83;;;13.07;99.15
59329;BME280;45100;46.926;7.452;2023-04-29T03:10:47;95101.45;;;13.06;99.55
59329;BME280;45100;46.926;7.452;2023-04-29T03:13:18;95101.41;;;13.04;99.76
59329;BME280;45100;46.926;7.452;2023-04-29T03:15:48;95100.95;;;13.02;99.93
59329;BME280;45100;46.926;7.452;2023-04-29T03:18:19;95097.73;;;12.99;100.00
59329;BME280;45100;46.926;7.452;2023-04-29T03:20:50;95104.44;;;12.96;100.00
59329;BME280;45100;46.926;7.452;2023-04-29T03:23:22;95104.62;;;12.94;100.00
59329;BME280;45100;46.926;7.452;2023-04-29T03:25:52;95103.37;;;12.90;100.00
59329;BME280;45100;46.926;7.452;2023-04-29T03:28:21;95103.61;;;12.88;100.00
59329;BME280;45100;46.926;7.452;2023-04-29T03:33:25;95098.89;;;12.83;100.00
59329;BME280;45100;46.926;7.452;2023-04-29T03:35:56;95102.33;;;12.82;100.00
59329;BME280;45100;46.926;7.452;2023-04-29T03:38:27;95105.39;;;12.81;100.00
59329;BME280;45100;46.926;7.452;2023-04-29T03:40:58;95104.03;;;12.81;100.00
59329;BME280;45100;46.926;7.452;2023-04-29T03:43:29;95101.38;;;12.79;100.00
59329;BME280;45100;46.926;7.452;2023-04-29T03:46:00;95099.91;;;12.76;100.00
59329;BME280;45100;46.926;7.452;2023-04-29T03:48:31;95098.03;;;12.74;100.00
59329;BME280;45100;46.926;7.452;2023-04-29T03:51:01;95093.69;;;12.72;100.00
59329;BME280;45100;46.926;7.452;2023-04-29T03:53:32;95091.30;;;12.70;100.00
59329;BME280;45100;46.926;7.452;2023-04-29T03:56:03;95087.77;;;12.70;100.00
59329;BME280;45100;46.926;7.452;2023-04-29T03:58:33;95086.39;;;12.68;100.00
59329;BME280;45100;46.926;7.452;2023-04-29T04:01:04;95085.02;;;12.67;100.00
59329;BME280;45100;46.926;7.452;2023-04-29T04:03:35;95089.17;;;12.66;100.00
59329;BME280;45100;46.926;7.452;2023-04-29T04:06:05;95083.78;;;12.67;100.00
59329;BME280;45100;46.926;7.452;2023-04-29T04:08:36;95079.59;;;12.69;100.00
59329;BME280;45100;46.926;7.452;2023-04-29T04:11:08;95084.78;;;12.72;100.00
59329;BME280;45100;46.926;7.452;2023-04-29T04:13:37;95087.03;;;12.75;100.00
59329;BME280;45100;46.926;7.452;2023-04-29T04:16:07;95086.59;;;12.78;100.00
59329;BME280;45100;46.926;7.452;2023-04-29T04:18:38;95094.97;;;12.81;100.00
59329;BME280;45100;46.926;7.452;2023-04-29T04:21:09;95102.11;;;12.85;100.00
59329;BME280;45100;46.926;7.452;2023-04-29T04:23:41;95110.20;;;12.87;100.00
59329;BME280;45100;46.926;7.452;2023-04-29T04:26:08;95109.42;;;12.90;100.00
59329;BME280;45100;46.926;7.452;2023-04-29T04:28:40;95118.00;;;12.93;100.00
59329;BME280;45100;46.926;7.452;2023-04-29T04:31:10;95124.65;;;12.96;100.00
59329;BME280;45100;46.926;7.452;2023-04-29T04:33:41;95126.76;;;12.96;100.00
59329;BME280;45100;46.926;7.452;2023-04-29T04:36:13;95129.63;;;12.93;100.00
59329;BME280;45100;46.926;7.452;2023-04-29T04:38:42;95134.50;;;12.90;100.00
59329;BME280;45100;46.926;7.452;2023-04-29T04:41:13;95134.70;;;12.86;100.00
59329;BME280;45100;46.926;7.452;2023-04-29T04:43:43;95134.52;;;12.84;100.00
59329;BME280;45100;46.926;7.452;2023-04-29T04:46:15;95141.95;;;12.82;100.00
59329;BME280;45100;46.926;7.452;2023-04-29T04:51:17;95137.73;;;12.82;100.00
59329;BME280;45100;46.926;7.452;2023-04-29T04:53:47;95135.70;;;12.81;100.00
59329;BME280;45100;46.926;7.452;2023-04-29T04:56:18;95137.10;;;12.79;100.00
59329;BME280;45100;46.926;7.452;2023-04-29T04:58:49;95143.06;;;12.77;100.00
59329;BME280;45100;46.926;7.452;2023-04-29T05:01:20;95142.05;;;12.75;100.00
59329;BME280;45100;46.926;7.452;2023-04-29T05:03:50;95140.94;;;12.74;100.00
59329;BME280;45100;46.926;7.452;2023-04-29T05:06:21;95139.39;;;12.75;100.00
59329;BME280;45100;46.926;7.452;2023-04-29T05:08:52;95141.02;;;12.75;100.00
59329;BME280;45100;46.926;7.452;2023-04-29T05:11:23;95138.23;;;12.73;100.00
59329;BME280;45100;46.926;7.452;2023-04-29T05:13:54;95141.12;;;12.72;100.00
59329;BME280;45100;46.926;7.452;2023-04-29T05:16:25;95133.72;;;12.71;100.00
59329;BME280;45100;46.926;7.452;2023-04-29T05:18:55;95131.20;;;12.74;100.00
59329;BME280;45100;46.926;7.452;2023-04-29T05:21:26;95127.80;;;12.76;100.00
59329;BME280;45100;46.926;7.452;2023-04-29T05:23:57;95133.94;;;12.78;100.00
59329;BME280;45100;46.926;7.452;2023-04-29T05:29:01;95130.30;;;12.83;99.27
59329;BME280;45100;46.926;7.452;2023-04-29T05:31:31;95131.55;;;12.84;98.98
59329;BME280;45100;46.926;7.452;2023-04-29T05:34:02;95131.90;;;12.85;98.85
59329;BME280;45100;46.926;7.452;2023-04-29T05:36:31;95135.09;;;12.86;98.58
59329;BME280;45100;46.926;7.452;2023-04-29T05:39:01;95148.32;;;12.88;98.46
59329;BME280;45100;46.926;7.452;2023-04-29T05:41:34;95143.62;;;12.89;98.45
59329;BME280;45100;46.926;7.452;2023-04-29T05:44:03;95148.62;;;12.91;98.44
59329;BME280;45100;46.926;7.452;2023-04-29T05:46:33;95146.86;;;12.91;98.34
59329;BME280;45100;46.926;7.452;2023-04-29T05:49:03;95147.82;;;12.92;98.59
59329;BME280;45100;46.926;7.452;2023-04-29T05:51:34;95149.95;;;12.93;98.67
59329;BME280;45100;46.926;7.452;2023-04-29T05:54:05;95155.82;;;12.94;98.38
59329;BME280;45100;46.926;7.452;2023-04-29T05:56:35;95148.08;;;12.94;98.54
59329;BME280;45100;46.926;7.452;2023-04-29T05:59:06;95149.64;;;12.93;98.69
59329;BME280;45100;46.926;7.452;2023-04-29T06:01:38;95143.89;;;12.92;98.83
59329;BME280;45100;46.926;7.452;2023-04-29T06:04:07;95146.30;;;12.90;99.09
59329;BME280;45100;46.926;7.452;2023-04-29T06:06:38;95154.02;;;12.90;99.34
59329;BME280;45100;46.926;7.452;2023-04-29T06:09:08;95163.02;;;12.91;99.42
59329;BME280;45100;46.926;7.452;2023-04-29T06:11:38;95163.73;;;12.93;99.66
59329;BME280;45100;46.926;7.452;2023-04-29T06:14:09;95164.23;;;12.97;99.41
59329;BME280;45100;46.926;7.452;2023-04-29T06:16:40;95161.20;;;13.00;99.11
59329;BME280;45100;46.926;7.452;2023-04-29T06:19:10;95159.41;;;13.03;99.07
59329;BME280;45100;46.926;7.452;2023-04-29T06:21:40;95165.22;;;13.05;99.02
59329;BME280;45100;46.926;7.452;2023-04-29T06:24:11;95170.89;;;13.05;99.14
59329;BME280;45100;46.926;7.452;2023-04-29T06:26:42;95169.52;;;13.02;99.60
59329;BME280;45100;46.926;7.452;2023-04-29T06:29:13;95168.84;;;13.02;99.82
59329;BME280;45100;46.926;7.452;2023-04-29T06:31:44;95175.48;;;13.00;100.00
59329;BME280;45100;46.926;7.452;2023-04-29T06:34:15;95176.27;;;12.99;100.00
59329;BME280;45100;46.926;7.452;2023-04-29T06:36:45;95179.20;;;13.00;100.00
59329;BME280;45100;46.926;7.452;2023-04-29T06:39:16;95178.88;;;13.00;100.00
59329;BME280;45100;46.926;7.452;2023-04-29T06:41:46;95182.30;;;13.02;100.00
59329;BME280;45100;46.926;7.452;2023-04-29T06:44:18;95177.40;;;13.05;100.00
59329;BME280;45100;46.926;7.452;2023-04-29T06:46:47;95169.30;;;13.09;99.99
59329;BME280;45100;46.926;7.452;2023-04-29T06:51:56;95176.45;;;13.17;99.66
59329;BME280;45100;46.926;7.452;2023-04-29T06:54:28;95174.95;;;13.23;99.16
59329;BME280;45100;46.926;7.452;2023-04-29T06:56:58;95180.15;;;13.27;98.60
59329;BME280;45100;46.926;7.452;2023-04-29T06:59:27;95180.25;;;13.30;98.38
59329;BME280;45100;46.926;7.452;2023-04-29T07:01:58;95182.56;;;13.34;98.13
59329;BME280;45100;46.926;7.452;2023-04-29T07:04:28;95184.30;;;13.38;98.25
59329;BME280;45100;46.926;7.452;2023-04-29T07:06:59;95182.15;;;13.42;98.14
59329;BME280;45100;46.926;7.452;2023-04-29T07:09:29;95186.77;;;13.44;98.19
59329;BME280;45100;46.926;7.452;2023-04-29T07:12:00;95186.69;;;13.45;98.12
59329;BME280;45100;46.926;7.452;2023-04-29T07:14:30;95189.39;;;13.46;97.68
59329;BME280;45100;46.926;7.452;2023-04-29T07:17:00;95192.23;;;13.47;97.92
59329;BME280;45100;46.926;7.452;2023-04-29T07:19:30;95197.77;;;13.48;98.41
59329;BME280;45100;46.926;7.452;2023-04-29T07:22:01;95197.34;;;13.46;98.80
59329;BME280;45100;46.926;7.452;2023-04-29T07:24:31;95193.46;;;13.46;99.51
59329;BME280;45100;46.926;7.452;2023-04-29T07:27:02;95199.80;;;13.47;99.93
59329;BME280;45100;46.926;7.452;2023-04-29T07:29:33;95200.55;;;13.49;100.00
59329;BME280;45100;46.926;7.452;2023-04-29T07:32:04;95205.29;;;13.53;99.76
59329;BME280;45100;46.926;7.452;2023-04-29T07:34:35;95206.84;;;13.59;99.80
59329;BME280;45100;46.926;7.452;2023-04-29T07:37:05;95210.22;;;13.69;99.65
59329;BME280;45100;46.926;7.452;2023-04-29T07:39:36;95216.84;;;13.78;99.35
59329;BME280;45100;46.926;7.452;2023-04-29T07:42:06;95214.39;;;13.88;98.89
59329;BME280;45100;46.926;7.452;2023-04-29T07:44:46;95212.27;;;14.01;98.53
59329;BME280;45100;46.926;7.452;2023-04-29T07:49:42;95211.02;;;14.30;96.59
59329;BME280;45100;46.926;7.452;2023-04-29T07:52:12;95209.45;;;14.47;95.34
59329;BME280;45100;46.926;7.452;2023-04-29T07:54:42;95208.74;;;14.63;94.50
59329;BME280;45100;46.926;7.452;2023-04-29T07:57:13;95203.61;;;14.81;93.79
59329;BME280;45100;46.926;7.452;2023-04-29T07:59:45;95203.78;;;15.00;93.37
59329;BME280;45100;46.926;7.452;2023-04-29T08:02:16;95207.70;;;15.21;91.96
59329;BME280;45100;46.926;7.452;2023-04-29T08:04:45;95202.95;;;15.39;90.26
59329;BME280;45100;46.926;7.452;2023-04-29T08:07:16;95202.61;;;15.60;90.07
59329;BME280;45100;46.926;7.452;2023-04-29T08:09:46;95204.75;;;15.80;88.87
59329;BME280;45100;46.926;7.452;2023-04-29T08:12:17;95208.31;;;15.95;86.79
59329;BME280;45100;46.926;7.452;2023-04-29T08:14:48;95213.69;;;16.07;84.52
59329;BME280;45100;46.926;7.452;2023-04-29T08:17:19;95207.63;;;16.09;83.12
59329;BME280;45100;46.926;7.452;2023-04-29T08:19:50;95204.73;;;16.08;83.75
59329;BME280;45100;46.926;7.452;2023-04-29T08:22:21;95209.25;;;16.06;83.99
59329;BME280;45100;46.926;7.452;2023-04-29T08:24:52;95214.34;;;16.05;84.63
59329;BME280;45100;46.926;7.452;2023-04-29T08:27:22;95205.70;;;16.04;83.05
59329;BME280;45100;46.926;7.452;2023-04-29T08:29:52;95207.88;;;16.05;83.24
59329;BME280;45100;46.926;7.452;2023-04-29T08:32:23;95207.41;;;16.08;84.26
59329;BME280;45100;46.926;7.452;2023-04-29T08:34:54;95206.83;;;16.14;82.11
59329;BME280;45100;46.926;7.452;2023-04-29T08:37:25;95198.70;;;16.20;82.53
59329;BME280;45100;46.926;7.452;2023-04-29T08:39:56;95199.44;;;16.26;80.98
59329;BME280;45100;46.926;7.452;2023-04-29T08:42:33;95199.49;;;16.29;80.30
59329;BME280;45100;46.926;7.452;2023-04-29T08:44:58;95201.73;;;16.32;80.54
59329;BME280;45100;46.926;7.452;2023-04-29T08:47:31;95201.30;;;16.40;80.62
59329;BME280;45100;46.926;7.452;2023-04-29T08:50:02;95204.02;;;16.50;80.64
59329;BME280;45100;46.926;7.452;2023-04-29T08:52:28;95204.53;;;16.61;80.29
59329;BME280;45100;46.926;7.452;2023-04-29T08:54:59;95208.16;;;16.76;80.60
59329;BME280;45100;46.926;7.452;2023-04-29T08:57:35;95208.12;;;16.93;77.74
59329;BME280;45100;46.926;7.452;2023-04-29T09:00:01;95208.78;;;17.08;73.93
59329;BME280;45100;46.926;7.452;2023-04-29T09:02:32;95209.27;;;17.16;72.63
59329;BME280;45100;46.926;7.452;2023-04-29T09:05:09;95209.83;;;17.25;72.72
59329;BME280;45100;46.926;7.452;2023-04-29T09:07:34;95212.87;;;17.37;72.55
59329;BME280;45100;46.926;7.452;2023-04-29T09:10:05;95211.02;;;17.50;72.16
59329;BME280;45100;46.926;7.452;2023-04-29T09:12:35;95211.51;;;17.58;70.93
59329;BME280;45100;46.926;7.452;2023-04-29T09:15:07;95206.59;;;17.59;70.71
59329;BME280;45100;46.926;7.452;2023-04-29T09:17:46;95209.92;;;17.56;71.47
59329;BME280;45100;46.926;7.452;2023-04-29T09:20:27;95206.59;;;17.55;72.83
59329;BME280;45100;46.926;7.452;2023-04-29T09:22:46;95203.88;;;17.53;70.06
59329;BME280;45100;46.926;7.452;2023-04-29T09:25:11;95202.30;;;17.56;72.43
59329;BME280;45100;46.926;7.452;2023-04-29T09:27:38;95203.39;;;17.63;70.61
59329;BME280;45100;46.926;7.452;2023-04-29T09:30:10;95197.37;;;17.67;70.08
59329;BME280;45100;46.926;7.452;2023-04-29T09:32:43;95190.31;;;17.63;70.95
59329;BME280;45100;46.926;7.452;2023-04-29T09:35:24;95188.35;;;17.66;72.51
59329;BME280;45100;46.926;7.452;2023-04-29T09:37:41;95187.61;;;17.74;72.39
59329;BME280;45100;46.926;7.452;2023-04-29T09:40:32;95188.81;;;17.85;70.93
59329;BME280;45100;46.926;7.452;2023-04-29T09:42:43;95190.45;;;18.00;71.05
59329;BME280;45100;46.926;7.452;2023-04-29T09:45:33;95189.11;;;18.13;69.50
59329;BME280;45100;46.926;7.452;2023-04-29T09:47:45;95183.38;;;18.21;71.12
59329;BME280;45100;46.926;7.452;2023-04-29T09:50:16;95183.12;;;18.26;69.16
59329;BME280;45100;46.926;7.452;2023-04-29T09:52:45;95182.02;;;18.30;70.08
59329;BME280;45100;46.926;7.452;2023-04-29T09:55:17;95178.41;;;18.31;67.91
59329;BME280;45100;46.926;7.452;2023-04-29T09:57:46;95175.16;;;18.26;68.62
59329;BME280;45100;46.926;7.452;2023-04-29T10:00:17;95182.53;;;18.22;68.39
59329;BME280;45100;46.926;7.452;2023-04-29T10:02:48;95184.61;;;18.23;68.45
59329;BME280;45100;46.926;7.452;2023-04-29T10:07:51;95177.73;;;18.35;66.68
59329;BME280;45100;46.926;7.452;2023-04-29T10:10:22;95179.33;;;18.36;66.87
59329;BME280;45100;46.926;7.452;2023-04-29T10:12:52;95182.44;;;18.36;67.16
59329;BME280;45100;46.926;7.452;2023-04-29T10:15:26;95182.38;;;18.36;66.80
59329;BME280;45100;46.926;7.452;2023-04-29T10:20:25;95178.95;;;18.32;68.02
59329;BME280;45100;46.926;7.452;2023-04-29T10:22:56;95182.06;;;18.32;70.85
59329;BME280;45100;46.926;7.452;2023-04-29T10:25:28;95178.89;;;18.31;71.89
59329;BME280;45100;46.926;7.452;2023-04-29T10:27:58;95173.02;;;18.29;72.34
59329;BME280;45100;46.926;7.452;2023-04-29T10:30:27;95175.70;;;18.14;72.98
59329;BME280;45100;46.926;7.452;2023-04-29T10:33:00;95172.48;;;18.02;73.39
59329;BME280;45100;46.926;7.452;2023-04-29T10:35:28;95172.53;;;18.02;74.54
59329;BME280;45100;46.926;7.452;2023-04-29T10:38:00;95174.36;;;18.12;75.48
59329;BME280;45100;46.926;7.452;2023-04-29T10:40:39;95169.29;;;18.23;72.91
59329;BME280;45100;46.926;7.452;2023-04-29T10:43:01;95165.80;;;18.34;72.36
59329;BME280;45100;46.926;7.452;2023-04-29T10:45:38;95162.46;;;18.39;73.94
59329;BME280;45100;46.926;7.452;2023-04-29T10:48:09;95157.30;;;18.45;73.24
59329;BME280;45100;46.926;7.452;2023-04-29T10:50:33;95158.77;;;18.52;69.96
59329;BME280;45100;46.926;7.452;2023-04-29T10:53:02;95156.65;;;18.52;70.54
59329;BME280;45100;46.926;7.452;2023-04-29T10:55:36;95150.88;;;18.54;70.53
59329;BME280;45100;46.926;7.452;2023-04-29T10:58:04;95149.45;;;18.63;72.96
59329;BME280;45100;46.926;7.452;2023-04-29T11:00:34;95142.44;;;18.80;71.60
59329;BME280;45100;46.926;7.452;2023-04-29T11:03:05;95146.39;;;18.98;67.58
59329;BME280;45100;46.926;7.452;2023-04-29T11:05:36;95139.25;;;19.05;66.13
59329;BME280;45100;46.926;7.452;2023-04-29T11:08:08;95137.92;;;19.09;67.20
59329;BME280;45100;46.926;7.452;2023-04-29T11:10:35;95139.51;;;19.19;66.76
59329;BME280;45100;46.926;7.452;2023-04-29T11:13:25;95133.45;;;19.33;66.68
59329;BME280;45100;46.926;7.452;2023-04-29T11:15:36;95129.27;;;19.42;65.45
59329;BME280;45100;46.926;7.452;2023-04-29T11:18:10;95124.48;;;19.43;64.88
59329;BME280;45100;46.926;7.452;2023-04-29T11:21:13;95120.64;;;19.41;64.84
59329;BME280;45100;46.926;7.452;2023-04-29T11:23:08;95116.28;;;19.51;68.67
59329;BME280;45100;46.926;7.452;2023-04-29T11:25:39;95111.75;;;19.70;66.71
59329;BME280;45100;46.926;7.452;2023-04-29T11:28:10;95106.27;;;19.80;65.50
59329;BME280;45100;46.926;7.452;2023-04-29T11:30:40;95112.45;;;19.80;63.05
59329;BME280;45100;46.926;7.452;2023-04-29T11:33:10;95109.48;;;19.59;64.23
59329;BME280;45100;46.926;7.452;2023-04-29T11:35:41;95106.22;;;19.46;64.96
59329;BME280;45100;46.926;7.452;2023-04-29T11:38:11;95104.06;;;19.39;63.60
59329;BME280;45100;46.926;7.452;2023-04-29T11:40:48;95107.56;;;19.33;63.06
59329;BME280;45100;46.926;7.452;2023-04-29T11:45:47;95107.27;;;19.41;62.31
59329;BME280;45100;46.926;7.452;2023-04-29T11:48:17;95109.81;;;19.52;62.45
59329;BME280;45100;46.926;7.452;2023-04-29T11:50:49;95106.27;;;19.71;60.57
59329;BME280;45100;46.926;7.452;2023-04-29T11:53:21;95104.02;;;19.95;59.24
59329;BME280;45100;46.926;7.452;2023-04-29T11:55:48;95097.59;;;20.12;57.51
59329;BME280;45100;46.926;7.452;2023-04-29T12:00:53;95103.02;;;20.39;56.98
59329;BME280;45100;46.926;7.452;2023-04-29T12:03:23;95105.59;;;20.49;54.86
59329;BME280;45100;46.926;7.452;2023-04-29T12:05:55;95104.97;;;20.54;50.58
59329;BME280;45100;46.926;7.452;2023-04-29T12:08:25;95101.16;;;20.50;49.96
59329;BME280;45100;46.926;7.452;2023-04-29T12:10:57;95102.77;;;20.42;50.94
59329;BME280;45100;46.926;7.452;2023-04-29T12:13:26;95104.88;;;20.27;52.78
59329;BME280;45100;46.926;7.452;2023-04-29T12:15:56;95101.30;;;20.11;55.07
59329;BME280;45100;46.926;7.452;2023-04-29T12:18:27;95096.45;;;20.09;57.38
59329;BME280;45100;46.926;7.452;2023-04-29T12:20:56;95090.19;;;20.16;58.10
59329;BME280;45100;46.926;7.452;2023-04-29T12:23:27;95099.03;;;20.21;60.26
59329;BME280;45100;46.926;7.452;2023-04-29T12:25:59;95096.08;;;20.13;58.24
59329;BME280;45100;46.926;7.452;2023-04-29T12:28:30;95093.42;;;20.06;59.66
59329;BME280;45100;46.926;7.452;2023-04-29T12:31:01;95092.58;;;20.13;60.58
59329;BME280;45100;46.926;7.452;2023-04-29T12:33:31;95091.09;;;20.34;59.17
59329;BME280;45100;46.926;7.452;2023-04-29T12:36:01;95088.40;;;20.53;58.83
59329;BME280;45100;46.926;7.452;2023-04-29T12:38:31;95083.45;;;20.66;57.61
59329;BME280;45100;46.926;7.452;2023-04-29T12:41:02;95085.19;;;20.73;57.90
59329;BME280;45100;46.926;7.452;2023-04-29T12:43:33;95083.72;;;20.84;57.67
59329;BME280;45100;46.926;7.452;2023-04-29T12:46:04;95075.27;;;20.88;56.92
59329;BME280;45100;46.926;7.452;2023-04-29T12:48:36;95074.44;;;20.88;55.90
59329;BME280;45100;46.926;7.452;2023-04-29T12:51:04;95074.16;;;20.89;56.11
59329;BME280;45100;46.926;7.452;2023-04-29T12:53:35;95076.50;;;20.90;52.80
59329;BME280;45100;46.926;7.452;2023-04-29T12:56:06;95076.14;;;20.96;50.26
59329;BME280;45100;46.926;7.452;2023-04-29T12:58:37;95069.97;;;21.04;49.76
59329;BME280;45100;46.926;7.452;2023-04-29T13:01:07;95066.84;;;21.12;49.47
59329;BME280;45100;46.926;7.452;2023-04-29T13:03:38;95067.74;;;21.09;50.75
59329;BME280;45100;46.926;7.452;2023-04-29T13:06:08;95064.91;;;20.96;52.20
59329;BME280;45100;46.926;7.452;2023-04-29T13:08:38;95061.52;;;20.82;52.26
59329;BME280;45100;46.926;7.452;2023-04-29T13:11:09;95059.42;;;20.79;52.34
59329;BME280;45100;46.926;7.452;2023-04-29T13:13:40;95058.34;;;20.92;53.38
59329;BME280;45100;46.926;7.452;2023-04-29T13:18:43;95059.95;;;21.36;48.15
59329;BME280;45100;46.926;7.452;2023-04-29T13:21:14;95062.72;;;21.38;46.02
59329;BME280;45100;46.926;7.452;2023-04-29T13:23:46;95059.17;;;21.37;46.29
59329;BME280;45100;46.926;7.452;2023-04-29T13:26:16;95057.78;;;21.33;46.13
59329;BME280;45100;46.926;7.452;2023-04-29T13:28:46;95054.45;;;21.38;46.57
59329;BME280;45100;46.926;7.452;2023-04-29T13:31:16;95054.67;;;21.58;46.21
59329;BME280;45100;46.926;7.452;2023-04-29T13:33:48;95054.55;;;21.84;45.35
59329;BME280;45100;46.926;7.452;2023-04-29T13:36:17;95049.08;;;22.07;44.08
59329;BME280;45100;46.926;7.452;2023-04-29T13:38:48;95052.62;;;22.11;43.44
59329;BME280;45100;46.926;7.452;2023-04-29T13:41:19;95050.00;;;22.10;44.00
59329;BME280;45100;46.926;7.452;2023-04-29T13:43:50;95048.95;;;22.08;44.25
59329;BME280;45100;46.926;7.452;2023-04-29T13:46:21;95047.55;;;22.04;43.46
59329;BME280;45100;46.926;7.452;2023-04-29T13:48:51;95046.13;;;21.96;42.82